Time;durP1;ratioP1;P1;durP2;ratioP2;P2;SDS_P1;SDS_P2;PMS_P1;PMS_P2;Temp;Humidity;BMP_temperature;BMP_pressure;BME280_temperature;BME280_humidity;BME280_pressure;Samples;Min_cycle;Max_cycle;Signal;HPM_P1;HPM_P2
2023/04/26 00:02:26;;;;;;;9.93;7.70;;;5.30;99.90;;;;;;5144706;27;20690;-77
2023/04/26 00:04:54;;;;;;;11.10;7.83;;;5.20;99.90;;;;;;5155664;27;20208;-78
2023/04/26 00:07:25;;;;;;;14.50;9.70;;;5.20;99.90;;;;;;5148086;27;20301;-78
2023/04/26 00:09:53;;;;;;;11.27;8.17;;;5.20;99.90;;;;;;5134931;27;20205;-78
2023/04/26 00:12:21;;;;;;;14.30;9.47;;;5.20;99.90;;;;;;5134117;27;20248;-78
2023/04/26 00:14:49;;;;;;;11.63;8.00;;;5.20;99.90;;;;;;5134313;27;20206;-78
2023/04/26 00:17:17;;;;;;;10.60;7.23;;;5.20;99.90;;;;;;5133882;27;20206;-77
2023/04/26 00:19:45;;;;;;;8.97;7.47;;;5.30;99.90;;;;;;5133758;27;20228;-78
2023/04/26 00:22:14;;;;;;;9.43;7.10;;;5.20;99.90;;;;;;5133664;27;20281;-77
2023/04/26 00:24:43;;;;;;;8.90;7.17;;;5.30;99.90;;;;;;5134294;27;20285;-78
2023/04/26 00:27:11;;;;;;;10.10;6.53;;;5.30;99.90;;;;;;5139472;27;20217;-76
2023/04/26 00:29:39;;;;;;;8.03;6.63;;;5.30;99.90;;;;;;5153689;27;20231;-74
2023/04/26 00:32:08;;;;;;;8.87;7.03;;;5.20;99.90;;;;;;5141362;27;20292;-77
2023/04/26 00:34:37;;;;;;;8.90;7.23;;;5.30;99.90;;;;;;5133698;27;20214;-78
2023/04/26 00:37:06;;;;;;;9.83;7.03;;;5.20;99.90;;;;;;5133517;27;20208;-78
2023/04/26 00:39:34;;;;;;;10.03;7.07;;;5.20;99.90;;;;;;5133690;27;20217;-77
2023/04/26 00:42:03;;;;;;;9.80;7.17;;;5.20;99.90;;;;;;5146921;27;20322;-78
2023/04/26 00:44:31;;;;;;;13.40;10.60;;;5.20;99.90;;;;;;5154177;27;20213;-79
2023/04/26 00:46:59;;;;;;;13.03;9.17;;;5.20;99.90;;;;;;5154259;27;20212;-78
2023/04/26 00:49:28;;;;;;;10.70;7.70;;;5.20;99.90;;;;;;5148536;27;20213;-78
2023/04/26 00:51:57;;;;;;;12.93;8.10;;;5.20;99.90;;;;;;5133258;27;20663;-76
2023/04/26 00:54:26;;;;;;;11.10;8.63;;;5.20;99.90;;;;;;5133673;27;20220;-77
2023/04/26 00:56:54;;;;;;;10.63;7.53;;;5.20;99.90;;;;;;5133761;27;20206;-76
2023/04/26 00:59:24;;;;;;;9.57;7.37;;;5.20;99.90;;;;;;5132884;27;20201;-77
2023/04/26 01:01:52;;;;;;;10.47;7.10;;;5.20;99.90;;;;;;5150961;27;20236;-77
2023/04/26 01:04:20;;;;;;;10.43;7.80;;;5.20;99.90;;;;;;5154151;27;20240;-78
2023/04/26 01:06:48;;;;;;;10.87;7.30;;;5.20;99.90;;;;;;5153971;27;20297;-77
2023/04/26 01:09:18;;;;;;;11.90;8.00;;;5.20;99.90;;;;;;5135950;27;20694;-78
2023/04/26 01:11:47;;;;;;;9.03;7.67;;;5.20;99.90;;;;;;5133196;27;20621;-78
2023/04/26 01:14:15;;;;;;;11.70;8.70;;;5.20;99.90;;;;;;5133110;27;20232;-76
2023/04/26 01:16:46;;;;;;;9.77;7.90;;;5.20;99.90;;;;;;5144087;27;20232;-76
2023/04/26 01:19:15;;;;;;;12.97;8.97;;;5.20;99.90;;;;;;5153300;27;20236;-76
2023/04/26 01:21:43;;;;;;;13.10;9.23;;;5.20;99.90;;;;;;5153562;27;20224;-77
2023/04/26 01:24:13;;;;;;;14.90;9.37;;;5.20;99.90;;;;;;5153539;27;20299;-76
2023/04/26 01:26:44;;;;;;;13.43;9.73;;;5.20;99.90;;;;;;5141506;27;20401;-78
2023/04/26 01:29:16;;;;;;;14.37;10.47;;;5.20;99.90;;;;;;5133367;27;20210;-78
2023/04/26 01:31:45;;;;;;;14.50;10.97;;;5.20;99.90;;;;;;5133439;27;20206;-76
2023/04/26 01:34:13;;;;;;;13.33;10.47;;;5.20;99.90;;;;;;5160467;27;20192;-76
2023/04/26 01:36:42;;;;;;;14.53;11.47;;;5.20;99.90;;;;;;5163575;27;20658;-78
2023/04/26 01:39:11;;;;;;;14.03;10.37;;;5.20;99.90;;;;;;5154219;27;20205;-76
2023/04/26 01:41:41;;;;;;;12.30;9.60;;;5.20;99.90;;;;;;5133463;27;20237;-78
2023/04/26 01:44:09;;;;;;;14.13;10.57;;;5.20;99.90;;;;;;5132805;27;20209;-78
2023/04/26 01:46:37;;;;;;;14.37;10.20;;;5.30;99.90;;;;;;5141092;27;20278;-78
2023/04/26 01:49:05;;;;;;;11.77;10.03;;;5.20;99.90;;;;;;5142336;27;20216;-77
2023/04/26 01:51:34;;;;;;;14.87;10.23;;;5.20;99.90;;;;;;5132911;27;20223;-77
2023/04/26 01:54:02;;;;;;;15.03;9.77;;;5.20;99.90;;;;;;5132636;27;20214;-76
2023/04/26 01:56:30;;;;;;;13.03;10.13;;;5.20;99.90;;;;;;5132941;28;20213;-77
2023/04/26 01:58:59;;;;;;;11.77;9.60;;;5.20;99.90;;;;;;5138523;27;20238;-77
2023/04/26 02:01:27;;;;;;;14.20;9.80;;;5.20;99.90;;;;;;5153544;27;20309;-78
2023/04/26 02:03:55;;;;;;;12.07;10.10;;;5.20;99.90;;;;;;5137006;27;20209;-80
2023/04/26 02:06:23;;;;;;;15.87;9.47;;;5.20;99.90;;;;;;5132659;28;20213;-77
2023/04/26 02:08:52;;;;;;;11.40;9.53;;;5.20;99.90;;;;;;5132376;28;20201;-78
2023/04/26 02:11:21;;;;;;;13.13;9.37;;;5.20;99.90;;;;;;5138954;27;20193;-77
2023/04/26 02:13:50;;;;;;;14.27;9.03;;;5.20;99.90;;;;;;5153463;27;20205;-78
2023/04/26 02:16:20;;;;;;;14.10;9.60;;;5.10;99.90;;;;;;5153180;27;20201;-77
2023/04/26 02:18:48;;;;;;;11.43;9.67;;;5.10;99.90;;;;;;5153350;27;20214;-78
2023/04/26 02:21:17;;;;;;;13.87;9.83;;;5.20;99.90;;;;;;5132313;27;20621;-78
2023/04/26 02:23:45;;;;;;;12.50;10.10;;;5.20;99.90;;;;;;5132518;28;20209;-78
2023/04/26 02:26:13;;;;;;;13.40;10.40;;;5.20;99.90;;;;;;5132547;28;20217;-78
2023/04/26 02:28:41;;;;;;;13.20;10.90;;;5.20;99.90;;;;;;5149681;27;20658;-78
2023/04/26 02:31:10;;;;;;;13.60;10.50;;;5.20;99.90;;;;;;5156860;27;20609;-78
2023/04/26 02:33:39;;;;;;;13.97;10.80;;;5.10;99.90;;;;;;5159690;27;20204;-76
2023/04/26 02:36:08;;;;;;;16.37;10.97;;;5.10;99.90;;;;;;5164943;27;20255;-76
2023/04/26 02:38:36;;;;;;;14.57;11.40;;;5.10;99.90;;;;;;5138435;27;20202;-78
2023/04/26 02:41:05;;;;;;;16.97;11.70;;;5.10;99.90;;;;;;5136574;27;20361;-79
2023/04/26 02:43:33;;;;;;;14.00;11.53;;;5.10;99.90;;;;;;5136294;27;20209;-76
2023/04/26 02:46:01;;;;;;;15.60;12.20;;;5.10;99.90;;;;;;5136006;27;20209;-72
2023/04/26 02:48:29;;;;;;;18.50;11.77;;;5.10;99.90;;;;;;5137546;27;20555;-79
2023/04/26 02:50:58;;;;;;;14.30;12.10;;;5.10;99.90;;;;;;5143030;27;20237;-78
2023/04/26 02:53:26;;;;;;;16.57;12.87;;;5.10;99.90;;;;;;5135844;27;20292;-76
2023/04/26 02:55:54;;;;;;;19.07;13.83;;;5.10;99.90;;;;;;5136063;27;20300;-79
2023/04/26 02:58:22;;;;;;;16.70;12.70;;;5.10;99.90;;;;;;5148225;27;20292;-75
2023/04/26 03:00:50;;;;;;;18.87;13.17;;;5.10;99.90;;;;;;5156439;27;20208;-77
2023/04/26 03:03:19;;;;;;;19.97;14.00;;;5.10;99.90;;;;;;5155586;27;20228;-76
2023/04/26 03:05:47;;;;;;;19.23;14.57;;;5.10;99.90;;;;;;5156465;27;20209;-76
2023/04/26 03:08:17;;;;;;;18.80;14.30;;;5.10;99.90;;;;;;5156436;27;20676;-77
2023/04/26 03:10:45;;;;;;;18.90;13.33;;;5.00;99.90;;;;;;5156485;27;20200;-78
2023/04/26 03:13:14;;;;;;;20.30;15.00;;;5.10;99.90;;;;;;5141401;27;20209;-77
2023/04/26 03:15:45;;;;;;;20.40;14.60;;;5.10;99.90;;;;;;5135653;27;20250;-74
2023/04/26 03:18:13;;;;;;;21.47;15.27;;;5.10;99.90;;;;;;5136029;27;20213;-74
2023/04/26 03:20:41;;;;;;;22.87;14.43;;;5.10;99.90;;;;;;5136591;27;20217;-75
2023/04/26 03:23:09;;;;;;;20.77;14.87;;;5.00;99.90;;;;;;5135439;27;20226;-74
2023/04/26 03:25:39;;;;;;;21.10;15.27;;;5.10;99.90;;;;;;5135734;27;20233;-75
2023/04/26 03:28:07;;;;;;;21.70;15.73;;;5.10;99.90;;;;;;5136069;27;20251;-78
2023/04/26 03:30:35;;;;;;;20.80;15.47;;;5.00;99.90;;;;;;5135748;27;20206;-77
2023/04/26 03:33:03;;;;;;;18.97;15.40;;;5.00;99.90;;;;;;5135086;27;20251;-78
2023/04/26 03:35:32;;;;;;;19.73;15.67;;;5.00;99.90;;;;;;5149957;27;20304;-76
2023/04/26 03:38:00;;;;;;;22.60;16.17;;;5.10;99.90;;;;;;5158859;27;20658;-74
2023/04/26 03:40:28;;;;;;;20.33;15.30;;;5.00;99.90;;;;;;5157641;27;20233;-73
2023/04/26 03:42:58;;;;;;;22.53;15.70;;;5.00;99.90;;;;;;5156415;27;20221;-74
2023/04/26 03:45:26;;;;;;;22.13;15.80;;;5.00;99.90;;;;;;5136893;27;20685;-75
2023/04/26 03:47:55;;;;;;;20.20;14.93;;;5.00;99.90;;;;;;5135659;27;20241;-76
2023/04/26 03:50:23;;;;;;;23.97;16.70;;;5.00;99.90;;;;;;5136984;27;20287;-77
2023/04/26 03:52:51;;;;;;;22.27;15.80;;;5.00;99.90;;;;;;5134866;27;20202;-77
2023/04/26 03:55:20;;;;;;;23.67;16.47;;;5.00;99.90;;;;;;5134951;27;20210;-76
2023/04/26 03:57:48;;;;;;;21.17;15.93;;;5.00;99.90;;;;;;5154316;27;20209;-78
2023/04/26 04:00:17;;;;;;;22.40;16.33;;;5.00;99.90;;;;;;5155556;27;20215;-77
2023/04/26 04:02:46;;;;;;;21.97;16.07;;;5.00;99.90;;;;;;5136633;27;20222;-78
2023/04/26 04:05:14;;;;;;;21.23;15.77;;;5.00;99.90;;;;;;5135250;27;20205;-76
2023/04/26 04:07:42;;;;;;;21.63;15.97;;;5.10;99.90;;;;;;5135054;27;20235;-76
2023/04/26 04:10:11;;;;;;;22.73;15.90;;;5.10;99.90;;;;;;5135312;27;20202;-77
2023/04/26 04:12:39;;;;;;;23.40;16.33;;;5.10;99.90;;;;;;5136839;27;20207;-72
2023/04/26 04:15:08;;;;;;;22.40;16.43;;;5.00;99.90;;;;;;5140941;27;20273;-77
2023/04/26 04:17:38;;;;;;;23.03;16.10;;;5.00;99.90;;;;;;5146145;27;20559;-73
2023/04/26 04:20:07;;;;;;;21.67;15.50;;;5.00;99.90;;;;;;5145639;27;20308;-76
2023/04/26 04:22:37;;;;;;;24.23;15.00;;;5.00;99.90;;;;;;5134368;27;20312;-76
2023/04/26 04:25:07;;;;;;;22.23;15.73;;;5.00;99.90;;;;;;5135207;27;20584;-76
2023/04/26 04:27:37;;;;;;;19.67;15.03;;;5.00;99.90;;;;;;5138927;27;20205;-79
2023/04/26 04:30:07;;;;;;;23.30;15.87;;;5.00;99.90;;;;;;5134389;27;20206;-76
2023/04/26 04:32:35;;;;;;;21.20;15.30;;;5.00;99.90;;;;;;5134652;27;20488;-76
2023/04/26 04:35:06;;;;;;;21.30;15.43;;;5.10;99.90;;;;;;5138937;27;20464;-76
2023/04/26 04:37:34;;;;;;;21.77;15.37;;;5.10;99.90;;;;;;5152168;27;20295;-78
2023/04/26 04:40:02;;;;;;;24.50;15.03;;;5.10;99.90;;;;;;5150135;27;20208;-78
2023/04/26 04:42:31;;;;;;;19.37;15.17;;;5.10;99.90;;;;;;5154853;27;20259;-76
2023/04/26 04:44:59;;;;;;;17.03;13.97;;;5.20;99.90;;;;;;5155327;27;20193;-77
2023/04/26 04:47:27;;;;;;;20.57;14.70;;;5.20;99.90;;;;;;5154346;27;20201;-78
2023/04/26 04:49:55;;;;;;;17.80;14.17;;;5.10;99.90;;;;;;5151378;27;20211;-78
2023/04/26 04:52:25;;;;;;;18.13;14.40;;;5.10;99.90;;;;;;5148444;27;20206;-76
2023/04/26 04:54:53;;;;;;;19.83;13.50;;;5.20;99.90;;;;;;5153790;27;20219;-76
2023/04/26 04:57:21;;;;;;;16.60;13.17;;;5.20;99.90;;;;;;5152968;27;20205;-75
2023/04/26 04:59:50;;;;;;;18.80;13.57;;;5.20;99.90;;;;;;5154670;27;20197;-76
2023/04/26 05:02:18;;;;;;;16.63;13.00;;;5.30;99.90;;;;;;5154231;27;20311;-77
2023/04/26 05:04:46;;;;;;;18.10;12.80;;;5.30;99.90;;;;;;5154566;27;20254;-78
2023/04/26 05:07:17;;;;;;;15.87;11.90;;;5.40;99.90;;;;;;5154472;27;20201;-75
2023/04/26 05:09:46;;;;;;;17.37;12.30;;;5.40;99.90;;;;;;5155828;27;20192;-76
2023/04/26 05:12:14;;;;;;;15.97;12.23;;;5.40;99.90;;;;;;5154097;27;20281;-76
2023/04/26 05:14:42;;;;;;;16.70;12.57;;;5.40;99.90;;;;;;5148667;27;20216;-76
2023/04/26 05:17:11;;;;;;;18.30;13.70;;;5.50;99.90;;;;;;5155595;27;20265;-77
2023/04/26 05:19:39;;;;;;;17.93;13.33;;;5.60;99.90;;;;;;5157128;27;20197;-77
2023/04/26 05:22:07;;;;;;;16.37;12.43;;;5.60;99.90;;;;;;5152041;27;20200;-78
2023/04/26 05:24:35;;;;;;;17.03;13.23;;;5.60;99.90;;;;;;5155151;27;20204;-75
2023/04/26 05:27:04;;;;;;;14.10;11.90;;;5.60;99.90;;;;;;5151709;27;20196;-75
2023/04/26 05:29:32;;;;;;;17.50;12.27;;;5.70;99.90;;;;;;5152129;27;20693;-77
2023/04/26 05:32:00;;;;;;;16.37;12.13;;;5.80;99.90;;;;;;5150550;27;20205;-74
2023/04/26 05:34:29;;;;;;;13.73;11.83;;;5.80;99.90;;;;;;5154457;27;20292;-77
2023/04/26 05:36:57;;;;;;;14.57;11.43;;;5.90;99.90;;;;;;5154037;27;20212;-77
2023/04/26 05:39:25;;;;;;;16.40;11.97;;;5.80;99.90;;;;;;5149783;27;20615;-76
2023/04/26 05:41:53;;;;;;;14.93;11.10;;;5.90;99.90;;;;;;5153473;27;20288;-79
2023/04/26 05:44:23;;;;;;;14.13;11.40;;;6.00;99.90;;;;;;5153278;27;20312;-77
2023/04/26 05:46:51;;;;;;;15.10;10.70;;;6.10;99.90;;;;;;5154522;27;20193;-76
2023/04/26 05:49:19;;;;;;;17.27;10.57;;;6.20;99.90;;;;;;5153324;27;20206;-73
2023/04/26 05:51:47;;;;;;;15.80;11.07;;;6.20;99.90;;;;;;5153581;27;20396;-73
2023/04/26 05:54:15;;;;;;;14.00;10.50;;;6.20;99.90;;;;;;5153881;27;20621;-76
2023/04/26 05:56:43;;;;;;;12.80;9.70;;;6.30;99.90;;;;;;5148603;27;20204;-76
2023/04/26 05:59:12;;;;;;;13.37;10.60;;;6.30;99.90;;;;;;5152636;27;20748;-75
2023/04/26 06:01:42;;;;;;;13.00;10.30;;;6.40;99.90;;;;;;5154491;27;20576;-76
2023/04/26 06:04:10;;;;;;;13.37;9.90;;;6.40;99.90;;;;;;5153647;27;20219;-78
2023/04/26 06:06:38;;;;;;;12.10;9.40;;;6.50;99.90;;;;;;5158023;27;20572;-78
2023/04/26 06:09:07;;;;;;;18.23;9.67;;;6.50;99.90;;;;;;5156894;27;20283;-74
2023/04/26 06:11:35;;;;;;;11.07;9.80;;;6.50;99.90;;;;;;5158329;27;20253;-76
2023/04/26 06:14:03;;;;;;;11.60;9.20;;;6.50;99.90;;;;;;5150671;27;20569;-76
2023/04/26 06:16:31;;;;;;;13.20;9.97;;;6.50;99.90;;;;;;5156672;27;20660;-77
2023/04/26 06:19:01;;;;;;;13.10;9.60;;;6.50;99.90;;;;;;5156301;27;20662;-76
2023/04/26 06:21:30;;;;;;;12.60;9.77;;;6.70;99.90;;;;;;5157984;27;20269;-77
2023/04/26 06:23:57;;;;;;;12.37;9.90;;;6.70;99.90;;;;;;5157791;27;20225;-76
2023/04/26 06:26:26;;;;;;;11.87;9.20;;;6.80;99.90;;;;;;5157371;27;20215;-77
2023/04/26 06:28:54;;;;;;;12.07;9.00;;;6.90;99.90;;;;;;5156496;27;20212;-76
2023/04/26 06:31:22;;;;;;;12.67;9.63;;;6.90;99.90;;;;;;5153855;27;20299;-74
2023/04/26 06:33:50;;;;;;;13.07;9.30;;;6.80;99.90;;;;;;5157300;27;20193;-75
2023/04/26 06:36:20;;;;;;;13.17;9.67;;;6.90;99.90;;;;;;5155827;27;20236;-77
2023/04/26 06:38:48;;;;;;;12.30;8.83;;;7.00;99.90;;;;;;5154858;27;20255;-75
2023/04/26 06:41:16;;;;;;;12.33;8.13;;;7.10;99.90;;;;;;5157256;27;20636;-75
2023/04/26 06:43:44;;;;;;;12.37;8.43;;;7.10;99.90;;;;;;5155913;27;20681;-74
2023/04/26 06:46:12;;;;;;;11.83;7.80;;;7.10;99.90;;;;;;5154043;27;20225;-76
2023/04/26 06:48:40;;;;;;;10.93;7.10;;;7.10;99.90;;;;;;5152490;27;20262;-77
2023/04/26 06:51:09;;;;;;;12.43;7.70;;;7.20;99.90;;;;;;5158185;27;20245;-74
2023/04/26 06:53:38;;;;;;;12.07;7.40;;;7.20;99.90;;;;;;5162782;27;20532;-77
2023/04/26 06:56:06;;;;;;;10.60;7.00;;;7.20;99.90;;;;;;5154820;27;20213;-74
2023/04/26 06:58:35;;;;;;;12.03;7.40;;;7.30;99.90;;;;;;5162472;27;20203;-75
2023/04/26 07:01:05;;;;;;;10.47;7.30;;;7.40;99.90;;;;;;5173159;27;20203;-73
2023/04/26 07:03:33;;;;;;;9.20;7.10;;;7.60;99.90;;;;;;5159408;27;20216;-76
2023/04/26 07:06:01;;;;;;;11.47;7.07;;;7.70;99.90;;;;;;5156469;27;20204;-77
2023/04/26 07:08:30;;;;;;;10.40;6.63;;;7.80;99.90;;;;;;5153375;27;20201;-75
2023/04/26 07:10:59;;;;;;;10.17;5.73;;;8.60;99.90;;;;;;5156400;27;20199;-77
2023/04/26 07:13:27;;;;;;;12.10;5.57;;;10.10;99.90;;;;;;5154316;27;20291;-78
2023/04/26 07:15:55;;;;;;;8.07;5.27;;;12.10;99.90;;;;;;5154714;27;20200;-79
2023/04/26 07:18:23;;;;;;;7.63;4.70;;;13.40;99.90;;;;;;5155713;27;20197;-77
2023/04/26 07:20:51;;;;;;;7.13;5.20;;;14.80;99.90;;;;;;5153238;27;20663;-78
2023/04/26 07:23:20;;;;;;;7.13;4.90;;;15.70;99.90;;;;;;5154909;27;20201;-75
2023/04/26 07:25:48;;;;;;;7.73;4.77;;;15.30;99.90;;;;;;5164188;27;20201;-74
2023/04/26 07:28:17;;;;;;;8.17;4.70;;;15.30;99.90;;;;;;5162817;27;20244;-74
2023/04/26 07:30:45;;;;;;;7.37;4.13;;;14.70;99.90;;;;;;5151900;27;20576;-75
2023/04/26 07:33:13;;;;;;;6.33;4.03;;;14.30;99.90;;;;;;5154497;27;20208;-75
2023/04/26 07:35:43;;;;;;;7.20;4.80;;;14.20;98.40;;;;;;5155283;27;20212;-77
2023/04/26 07:38:13;;;;;;;6.73;4.13;;;14.70;99.00;;;;;;5155838;27;20542;-75
2023/04/26 07:40:42;;;;;;;8.93;3.70;;;15.50;98.70;;;;;;5152785;27;20204;-75
2023/04/26 07:43:10;;;;;;;7.60;3.97;;;15.90;96.70;;;;;;5154315;27;20283;-75
2023/04/26 07:45:39;;;;;;;6.57;4.30;;;15.70;94.10;;;;;;5154917;27;20220;-76
2023/04/26 07:48:07;;;;;;;7.17;4.50;;;16.70;95.20;;;;;;5153019;27;20201;-73
2023/04/26 07:50:36;;;;;;;6.13;4.30;;;17.30;92.80;;;;;;5155581;27;20203;-74
2023/04/26 07:53:04;;;;;;;9.87;4.30;;;17.10;91.30;;;;;;5155203;27;20197;-73
2023/04/26 07:55:32;;;;;;;7.50;4.80;;;16.30;90.90;;;;;;5154478;27;20189;-74
2023/04/26 07:58:01;;;;;;;8.43;4.70;;;15.90;94.50;;;;;;5153795;27;20231;-76
2023/04/26 08:00:29;;;;;;;8.63;4.70;;;14.90;94.00;;;;;;5157999;27;20647;-74
2023/04/26 08:02:58;;;;;;;6.57;4.70;;;14.30;97.20;;;;;;5163203;27;20312;-74
2023/04/26 08:05:27;;;;;;;10.70;4.50;;;13.40;96.50;;;;;;5153210;27;20678;-78
2023/04/26 08:07:55;;;;;;;6.80;4.03;;;13.10;98.80;;;;;;5154985;27;20208;-74
2023/04/26 08:10:23;;;;;;;7.70;4.50;;;14.10;98.40;;;;;;5154733;27;20213;-74
2023/04/26 08:12:51;;;;;;;8.20;4.50;;;15.70;95.60;;;;;;5154202;27;20662;-75
2023/04/26 08:15:19;;;;;;;6.27;4.40;;;15.50;95.50;;;;;;5153698;27;20237;-77
2023/04/26 08:17:51;;;;;;;6.90;4.47;;;16.10;92.40;;;;;;5154384;27;20543;-74
2023/04/26 08:20:21;;;;;;;7.77;4.03;;;16.80;93.60;;;;;;5154751;27;20211;-74
2023/04/26 08:22:50;;;;;;;7.10;4.00;;;17.00;87.50;;;;;;5151276;27;20205;-75
2023/04/26 08:25:18;;;;;;;7.90;3.80;;;17.40;91.40;;;;;;5152479;27;20217;-75
2023/04/26 08:27:46;;;;;;;7.83;4.07;;;18.40;89.40;;;;;;5154562;27;20395;-77
2023/04/26 08:30:14;;;;;;;6.90;3.97;;;18.80;81.40;;;;;;5154419;27;20197;-77
2023/04/26 08:32:42;;;;;;;7.88;4.65;;;19.10;80.80;;;;;;5152071;27;20680;-75
2023/04/26 08:35:11;;;;;;;8.25;4.20;;;19.60;79.60;;;;;;5151799;27;20197;-75
2023/04/26 08:37:40;;;;;;;6.88;4.35;;;19.30;77.60;;;;;;5155718;27;20215;-77
2023/04/26 08:40:10;;;;;;;7.50;4.13;;;18.30;72.60;;;;;;5148307;27;20232;-78
2023/04/26 08:42:42;;;;;;;10.13;4.50;;;17.30;79.10;;;;;;5155455;27;20232;-78
2023/04/26 08:45:11;;;;;;;9.40;4.47;;;16.30;77.30;;;;;;5158017;27;20216;-75
2023/04/26 08:47:43;;;;;;;9.23;4.60;;;15.40;79.20;;;;;;5155571;27;20215;-77
2023/04/26 08:50:13;;;;;;;6.67;4.83;;;15.20;92.30;;;;;;5151878;27;20650;-75
2023/04/26 08:52:44;;;;;;;7.63;4.40;;;14.40;89.50;;;;;;5153939;27;20587;-78
2023/04/26 08:55:15;;;;;;;7.37;4.37;;;13.80;89.80;;;;;;5152303;27;20240;-79
2023/04/26 08:57:43;;;;;;;9.27;4.87;;;13.90;97.10;;;;;;5152055;27;20215;-77
2023/04/26 09:00:14;;;;;;;8.37;4.63;;;14.70;97.30;;;;;;5151469;27;20207;-76
2023/04/26 09:02:46;;;;;;;8.20;4.77;;;16.00;87.60;;;;;;5153552;27;20227;-76
2023/04/26 09:05:14;;;;;;;10.30;4.20;;;16.30;86.60;;;;;;5151820;27;20666;-76
2023/04/26 09:07:45;;;;;;;7.07;3.80;;;17.00;83.60;;;;;;5153131;27;20266;-77
2023/04/26 09:10:19;;;;;;;6.57;3.93;;;16.70;77.60;;;;;;5151846;27;20196;-77
2023/04/26 09:12:51;;;;;;;6.10;3.90;;;16.30;77.80;;;;;;5153703;27;20205;-76
2023/04/26 09:15:21;;;;;;;7.47;4.33;;;16.10;88.10;;;;;;5154232;27;20192;-75
2023/04/26 09:17:50;;;;;;;6.60;4.10;;;15.60;85.50;;;;;;5149273;27;20231;-79
2023/04/26 09:20:21;;;;;;;7.10;4.63;;;15.30;88.50;;;;;;5153909;27;20281;-77
2023/04/26 09:22:52;;;;;;;7.50;5.20;;;15.20;90.60;;;;;;5159664;27;20201;-75
2023/04/26 09:25:28;;;;;;;5.70;3.87;;;14.60;92.80;;;;;;5151637;27;20225;-74
2023/04/26 09:27:56;;;;;;;9.00;5.03;;;14.50;92.20;;;;;;5160186;27;20263;-73
2023/04/26 09:30:24;;;;;;;7.13;4.60;;;14.10;93.70;;;;;;5152860;27;20229;-79
2023/04/26 09:32:54;;;;;;;8.43;5.27;;;13.40;94.60;;;;;;5148230;27;20280;-77
2023/04/26 09:35:28;;;;;;;8.93;5.17;;;13.50;94.50;;;;;;5152873;27;20666;-75
2023/04/26 09:38:00;;;;;;;8.47;5.33;;;13.30;93.70;;;;;;5152144;27;20208;-77
2023/04/26 09:40:39;;;;;;;8.43;4.57;;;12.80;93.10;;;;;;5151654;27;20221;-77
2023/04/26 09:43:10;;;;;;;7.67;4.20;;;12.50;96.10;;;;;;5152661;27;20669;-78
2023/04/26 09:45:48;;;;;;;6.67;4.23;;;12.60;97.10;;;;;;5153083;27;20232;-77
2023/04/26 09:48:20;;;;;;;8.53;3.50;;;14.20;93.80;;;;;;5153920;27;20207;-78
2023/04/26 09:50:51;;;;;;;6.67;3.33;;;15.70;91.60;;;;;;5154134;27;20574;-77
2023/04/26 09:53:33;;;;;;;5.57;3.77;;;17.50;78.00;;;;;;5153536;27;20209;-78
2023/04/26 09:56:09;;;;;;;7.23;3.60;;;18.90;84.40;;;;;;5142448;27;20621;-78
2023/04/26 09:58:38;;;;;;;7.90;3.80;;;20.00;74.40;;;;;;5133764;28;20666;-77
2023/04/26 10:01:08;;;;;;;6.67;3.57;;;20.60;70.10;;;;;;5144343;27;20249;-77
2023/04/26 10:03:37;;;;;;;6.93;3.67;;;19.90;64.30;;;;;;5148043;27;20196;-78
2023/04/26 10:06:06;;;;;;;6.13;3.43;;;18.70;66.70;;;;;;5156484;27;20219;-74
2023/04/26 10:08:36;;;;;;;7.70;4.27;;;16.90;74.60;;;;;;5166227;27;20232;-72
2023/04/26 10:11:06;;;;;;;7.13;4.67;;;15.90;77.50;;;;;;5152229;27;20288;-76
2023/04/26 10:13:34;;;;;;;7.70;5.00;;;14.70;89.90;;;;;;5151731;27;20280;-75
2023/04/26 10:16:03;;;;;;;12.43;6.63;;;14.10;91.80;;;;;;5150739;27;20651;-77
2023/04/26 10:18:32;;;;;;;11.30;6.13;;;12.80;93.70;;;;;;5153213;27;20296;-78
2023/04/26 10:21:07;;;;;;;8.90;5.53;;;12.20;96.70;;;;;;5151128;27;20205;-78
2023/04/26 10:23:37;;;;;;;10.80;6.10;;;11.50;98.60;;;;;;5152979;27;20216;-79
2023/04/26 10:26:06;;;;;;;9.20;5.23;;;11.30;99.20;;;;;;5153824;27;20213;-75
2023/04/26 10:28:57;;;;;;;9.57;5.40;;;11.00;99.90;;;;;;5151957;27;20727;-77
2023/04/26 10:32:04;;;;;;;9.13;5.20;;;11.10;99.90;;;;;;5153252;27;20208;-73
2023/04/26 10:34:33;;;;;;;7.80;5.50;;;11.10;99.90;;;;;;5152769;27;20212;-77
2023/04/26 10:37:08;;;;;;;8.47;5.37;;;11.10;99.90;;;;;;5154740;27;20192;-74
2023/04/26 10:39:38;;;;;;;9.57;5.40;;;10.80;99.90;;;;;;5148744;27;20208;-76
2023/04/26 10:42:23;;;;;;;8.83;5.77;;;10.70;99.90;;;;;;5155579;27;20250;-75
2023/04/26 10:44:53;;;;;;;9.47;5.47;;;10.80;99.90;;;;;;5154173;27;20189;-76
2023/04/26 10:47:27;;;;;;;9.97;5.30;;;10.90;99.90;;;;;;5152018;27;20193;-76
2023/04/26 10:50:06;;;;;;;10.37;6.10;;;10.90;99.90;;;;;;5151837;27;20196;-74
2023/04/26 10:52:35;;;;;;;7.33;5.33;;;11.10;99.90;;;;;;5156495;27;20200;-75
2023/04/26 10:55:06;;;;;;;8.27;5.60;;;11.00;99.90;;;;;;5158562;27;20212;-77
2023/04/26 10:57:51;;;;;;;8.93;5.07;;;11.10;99.90;;;;;;5155108;27;20208;-76
2023/04/26 11:00:30;;;;;;;8.17;5.20;;;11.40;99.90;;;;;;5157859;27;20205;-77
2023/04/26 11:03:07;;;;;;;8.77;5.00;;;11.50;99.90;;;;;;5156746;27;20553;-74
2023/04/26 11:05:52;;;;;;;9.17;4.90;;;11.80;99.90;;;;;;5155055;27;20224;-76
2023/04/26 11:08:23;;;;;;;8.47;5.30;;;12.20;99.90;;;;;;5155271;27;20283;-76
2023/04/26 11:11:07;;;;;;;9.17;5.40;;;12.50;99.90;;;;;;5155107;27;20208;-75
2023/04/26 11:13:37;;;;;;;8.83;4.63;;;13.00;99.90;;;;;;5156878;27;20568;-77
2023/04/26 11:16:07;;;;;;;7.97;4.40;;;12.80;99.90;;;;;;5156905;27;20234;-75
2023/04/26 11:18:37;;;;;;;8.20;4.50;;;12.80;96.90;;;;;;5158041;27;20201;-78
2023/04/26 11:21:06;;;;;;;6.10;4.03;;;12.70;96.50;;;;;;5158451;27;20196;-76
2023/04/26 11:23:35;;;;;;;4.80;3.60;;;12.70;97.60;;;;;;5156430;27;20213;-78
2023/04/26 11:26:07;;;;;;;8.53;3.77;;;12.80;96.70;;;;;;5156754;27;20221;-74
2023/04/26 11:28:37;;;;;;;6.53;4.00;;;13.30;97.40;;;;;;5156692;27;20193;-73
2023/04/26 11:31:07;;;;;;;8.87;4.13;;;13.80;97.70;;;;;;5154820;27;20558;-78
2023/04/26 11:33:35;;;;;;;7.40;3.47;;;14.30;99.90;;;;;;5151691;27;20209;-75
2023/04/26 11:36:04;;;;;;;6.07;3.20;;;15.00;98.00;;;;;;5154856;27;20291;-78
2023/04/26 11:38:32;;;;;;;7.47;3.90;;;15.40;92.20;;;;;;5153200;27;20200;-80
2023/04/26 11:41:01;;;;;;;6.47;3.87;;;15.00;91.10;;;;;;5154322;27;20390;-77
2023/04/26 11:43:35;;;;;;;7.40;3.80;;;14.90;89.80;;;;;;5155890;27;20231;-76
2023/04/26 11:46:04;;;;;;;7.43;4.03;;;15.20;91.60;;;;;;5155486;27;20209;-76
2023/04/26 11:48:34;;;;;;;7.60;4.23;;;15.10;92.30;;;;;;5153056;27;20590;-76
2023/04/26 11:51:04;;;;;;;8.30;3.90;;;15.40;91.60;;;;;;5154893;27;20253;-75
2023/04/26 11:53:36;;;;;;;6.23;3.70;;;15.20;92.40;;;;;;5154024;27;20197;-74
2023/04/26 11:56:13;;;;;;;6.57;3.50;;;15.80;90.50;;;;;;5154810;27;20205;-74
2023/04/26 11:58:46;;;;;;;7.90;3.70;;;15.40;89.20;;;;;;5153976;27;20283;-75
2023/04/26 12:01:22;;;;;;;6.40;3.40;;;16.00;90.40;;;;;;5153280;27;20201;-75
2023/04/26 12:03:52;;;;;;;6.10;3.47;;;15.80;90.00;;;;;;5155011;27;20201;-76
2023/04/26 12:06:25;;;;;;;7.67;3.97;;;16.00;87.80;;;;;;5155381;27;20228;-76
2023/04/26 12:08:56;;;;;;;6.50;3.70;;;16.20;86.00;;;;;;5153707;27;20201;-75
2023/04/26 12:11:24;;;;;;;9.57;3.60;;;15.60;87.20;;;;;;5154775;27;20544;-76
2023/04/26 12:13:53;;;;;;;7.10;3.67;;;15.30;84.20;;;;;;5152188;27;20288;-77
2023/04/26 12:16:22;;;;;;;5.20;3.60;;;15.70;90.80;;;;;;5155275;27;20189;-76
2023/04/26 12:18:55;;;;;;;7.73;4.20;;;15.80;86.80;;;;;;5136662;27;20658;-76
2023/04/26 12:21:26;;;;;;;8.63;3.77;;;16.00;86.80;;;;;;5135473;27;20292;-76
2023/04/26 12:23:57;;;;;;;5.13;3.80;;;15.70;90.50;;;;;;5134943;27;20206;-77
2023/04/26 12:26:42;;;;;;;7.33;4.03;;;15.50;89.60;;;;;;5134848;27;20316;-76
2023/04/26 12:29:11;;;;;;;6.93;3.83;;;15.60;93.80;;;;;;5134881;27;20198;-80
2023/04/26 12:31:40;;;;;;;9.30;4.27;;;15.30;93.70;;;;;;5137350;27;20227;-78
2023/04/26 12:34:08;;;;;;;8.67;4.23;;;15.50;88.10;;;;;;5135149;27;20212;-76
2023/04/26 12:36:36;;;;;;;8.80;4.03;;;13.90;88.90;;;;;;5139808;27;20258;-76
2023/04/26 12:39:05;;;;;;;12.33;4.03;;;13.60;90.90;;;;;;5155506;27;20299;-77
2023/04/26 12:41:33;;;;;;;7.87;3.83;;;13.30;92.40;;;;;;5155293;27;20285;-76
2023/04/26 12:44:01;;;;;;;7.13;3.77;;;13.20;91.90;;;;;;5154379;27;20235;-76
2023/04/26 12:46:31;;;;;;;6.77;3.80;;;12.70;91.70;;;;;;5154803;27;20221;-77
2023/04/26 12:48:59;;;;;;;6.77;3.20;;;13.00;93.30;;;;;;5155165;27;20209;-76
2023/04/26 12:51:28;;;;;;;5.83;2.90;;;13.60;95.10;;;;;;5154955;27;20215;-75
2023/04/26 12:53:56;;;;;;;5.77;2.50;;;14.30;89.60;;;;;;5151255;27;20296;-76
2023/04/26 12:56:25;;;;;;;4.40;2.60;;;14.80;90.20;;;;;;5134017;27;20205;-76